Chalybeate, Mississippi
Current Conditions -  °F | °C
As of 2:35 PM on Thursday 27 Nov 2014 (Local Time) from KCRX Reporting Station
Overcast Overcast  
Wind Chill: 35°   Ceiling: 3100
Heat Index: 41°   Visibility: NA
Dew Point: 28°   Wind: 10mph
Humidity: 61%   Direction: 340°NNW
Pressure: 30.45"   Gusts: NA
Location:  34.9572°N, 88.9195°W
Report Text: KCRX 272035Z AUTO 34009KT OVC031 05/M02 A3045 RMK AO2
Loading
Personal Weather Stations






























Interactive Weather Map New forecast layout! Learn more

10-Day Weather Forecast

Advertisements
Track Severe Weather on mobile